RJCT(METAR)
04/28 17:00
METAR RJCT 280800Z 31006KT 9999 SCT040 SCT070 13/01 Q1002 RMK 3CU040
4AC070 A2961=
戻る
トップページへ戻る
IMOC Co,.Ltd.